createdAt,value
2023-01-19T00:00:06.771Z,-0.54
2023-01-19T00:02:33.083Z,-0.57
2023-01-19T00:04:59.378Z,-0.60
2023-01-19T00:07:25.630Z,-0.63
2023-01-19T00:09:51.918Z,-0.67
2023-01-19T00:12:18.179Z,-0.70
2023-01-19T00:14:44.441Z,-0.70
2023-01-19T00:17:10.701Z,-0.73
2023-01-19T00:19:36.955Z,-0.76
2023-01-19T00:22:03.233Z,-0.85
2023-01-19T00:24:29.497Z,-0.92
2023-01-19T00:26:55.768Z,-1.03
2023-01-19T00:29:22.033Z,-1.08
2023-01-19T00:31:48.321Z,-1.12
2023-01-19T00:34:14.608Z,-1.06
2023-01-19T00:36:40.895Z,-1.04
2023-01-19T00:39:07.152Z,-1.09
2023-01-19T00:41:33.406Z,-1.08
2023-01-19T00:43:59.652Z,-1.11
2023-01-19T00:46:25.891Z,-1.08
2023-01-19T00:48:52.263Z,-1.14
2023-01-19T00:51:18.510Z,-1.17
2023-01-19T00:53:44.751Z,-1.16
2023-01-19T00:56:11.028Z,-1.20
2023-01-19T00:58:37.277Z,-1.22
2023-01-19T01:01:03.988Z,-1.19
2023-01-19T01:03:30.348Z,-1.19
2023-01-19T01:05:56.616Z,-1.19
2023-01-19T01:08:22.960Z,-1.18
2023-01-19T01:10:49.277Z,-1.22
2023-01-19T01:13:22.551Z,-1.26
2023-01-19T01:15:50.085Z,-1.25
2023-01-19T01:18:16.331Z,-1.26
2023-01-19T01:20:42.607Z,-1.27
2023-01-19T01:23:08.859Z,-1.29
2023-01-19T01:25:35.133Z,-1.31
2023-01-19T01:28:01.403Z,-1.38
2023-01-19T01:30:27.681Z,-1.32
2023-01-19T01:32:53.927Z,-1.32
2023-01-19T01:35:20.179Z,-1.30
2023-01-19T01:37:46.472Z,-1.30
2023-01-19T01:40:12.762Z,-1.33
2023-01-19T01:42:39.047Z,-1.33
2023-01-19T01:45:05.735Z,-1.40
2023-01-19T01:47:32.019Z,-1.43
2023-01-19T01:49:58.302Z,-1.44
2023-01-19T01:52:24.608Z,-1.47
2023-01-19T01:54:50.887Z,-1.51
2023-01-19T01:57:17.137Z,-1.52
2023-01-19T01:59:43.402Z,-1.56
2023-01-19T02:02:09.698Z,-1.61
2023-01-19T02:04:36.651Z,-1.62
2023-01-19T02:07:02.943Z,-1.60
2023-01-19T02:09:29.242Z,-1.63
2023-01-19T02:11:55.611Z,-1.71
2023-01-19T02:14:21.880Z,-1.75
2023-01-19T02:16:48.213Z,-1.79
2023-01-19T02:19:14.465Z,-1.78
2023-01-19T02:21:40.766Z,-1.82
2023-01-19T02:24:07.031Z,-1.86
2023-01-19T02:26:33.281Z,-1.84
2023-01-19T02:28:59.555Z,-1.87
2023-01-19T02:31:25.819Z,-1.82
2023-01-19T02:33:52.076Z,-1.86
2023-01-19T02:36:18.341Z,-1.86
2023-01-19T02:38:44.677Z,-1.88
2023-01-19T02:41:10.943Z,-1.87
2023-01-19T02:43:37.196Z,-1.90
2023-01-19T02:46:03.515Z,-1.90
2023-01-19T02:48:29.800Z,-1.95
2023-01-19T02:50:56.057Z,-2.04
2023-01-19T02:53:22.391Z,-2.16
2023-01-19T02:55:48.669Z,-2.21
2023-01-19T02:58:14.926Z,-2.29
2023-01-19T03:00:41.215Z,-2.37
2023-01-19T03:03:07.550Z,-2.38
2023-01-19T03:05:33.844Z,-2.42
2023-01-19T03:08:00.139Z,-2.43
2023-01-19T03:10:26.530Z,-2.46
2023-01-19T03:12:52.787Z,-2.48
2023-01-19T03:15:19.144Z,-2.59
2023-01-19T03:17:45.429Z,-2.77
2023-01-19T03:20:11.683Z,-2.77
2023-01-19T03:22:37.954Z,-2.91
2023-01-19T03:25:04.229Z,-2.80
2023-01-19T03:27:30.521Z,-2.96
2023-01-19T03:29:56.773Z,-2.93
2023-01-19T03:32:23.032Z,-2.98
2023-01-19T03:34:49.280Z,-2.98
2023-01-19T03:37:15.535Z,-3.05
2023-01-19T03:39:41.799Z,-3.04
2023-01-19T03:42:08.049Z,-3.12
2023-01-19T03:44:34.288Z,-3.07
2023-01-19T03:47:00.552Z,-3.13
2023-01-19T03:49:26.840Z,-3.10
2023-01-19T03:51:53.099Z,-3.07
2023-01-19T03:54:19.381Z,-3.07
2023-01-19T03:56:45.653Z,-3.06
2023-01-19T03:59:11.925Z,-3.10
2023-01-19T04:01:38.276Z,-3.12
2023-01-19T04:04:04.597Z,-3.16
2023-01-19T04:06:30.858Z,-3.15
2023-01-19T04:08:57.218Z,-3.21
2023-01-19T04:11:23.719Z,-3.17
2023-01-19T04:13:50.031Z,-3.15
2023-01-19T04:16:16.330Z,-3.16
2023-01-19T04:18:42.618Z,-3.17
2023-01-19T04:21:08.876Z,-3.17
2023-01-19T04:23:35.129Z,-3.20
2023-01-19T04:26:01.391Z,-3.20
2023-01-19T04:28:27.657Z,-3.18
2023-01-19T04:30:53.992Z,-3.25
2023-01-19T04:33:20.267Z,-3.20
2023-01-19T04:35:46.529Z,-3.18
2023-01-19T04:38:12.791Z,-3.12
2023-01-19T04:40:39.059Z,-3.09
2023-01-19T04:43:05.336Z,-3.11
2023-01-19T04:45:31.596Z,-3.12
2023-01-19T04:47:57.846Z,-3.13
2023-01-19T04:50:24.098Z,-3.10
2023-01-19T04:52:50.344Z,-3.12
2023-01-19T04:55:16.604Z,-3.15
2023-01-19T04:57:42.850Z,-3.20
2023-01-19T05:00:09.107Z,-3.35
2023-01-19T05:02:35.376Z,-3.46
2023-01-19T05:05:01.697Z,-3.57
2023-01-19T05:07:28.041Z,-3.62
2023-01-19T05:09:54.348Z,-3.55
2023-01-19T05:12:20.635Z,-3.53
2023-01-19T05:14:46.901Z,-3.54
2023-01-19T05:17:13.187Z,-3.52
2023-01-19T05:19:39.444Z,-3.54
2023-01-19T05:22:05.695Z,-3.51
2023-01-19T05:24:31.977Z,-3.49
2023-01-19T05:26:58.243Z,-3.48
2023-01-19T05:29:24.485Z,-3.51
2023-01-19T05:31:50.943Z,-3.49
2023-01-19T05:34:17.205Z,-3.50
2023-01-19T05:36:43.472Z,-3.51
2023-01-19T05:39:09.899Z,-3.55
2023-01-19T05:41:36.160Z,-3.71
2023-01-19T05:44:02.433Z,-3.78
2023-01-19T05:46:28.726Z,-3.84
2023-01-19T05:48:55.015Z,-3.98
2023-01-19T05:51:21.300Z,-4.10
2023-01-19T05:53:47.551Z,-4.04
2023-01-19T05:56:13.824Z,-4.06
2023-01-19T05:58:40.086Z,-3.93
2023-01-19T06:01:06.381Z,-3.88
2023-01-19T06:03:32.848Z,-3.85
2023-01-19T06:05:59.274Z,-3.83
2023-01-19T06:08:25.543Z,-3.78
2023-01-19T06:10:51.809Z,-3.71
2023-01-19T06:13:18.100Z,-3.77
2023-01-19T06:15:44.576Z,-3.78
2023-01-19T06:18:10.851Z,-3.75
2023-01-19T06:20:37.117Z,-3.74
2023-01-19T06:23:03.626Z,-3.71
2023-01-19T06:25:30.101Z,-3.69
2023-01-19T06:27:56.356Z,-3.67
2023-01-19T06:30:22.618Z,-3.71
2023-01-19T06:32:48.961Z,-3.74
2023-01-19T06:35:15.201Z,-3.74
2023-01-19T06:37:41.476Z,-3.75
2023-01-19T06:40:07.761Z,-3.76
2023-01-19T06:42:34.027Z,-3.81
2023-01-19T06:45:00.305Z,-3.86
2023-01-19T06:47:26.574Z,-3.80
2023-01-19T06:49:52.848Z,-3.92
2023-01-19T06:52:19.150Z,-3.99
2023-01-19T06:54:45.605Z,-4.05
2023-01-19T06:57:11.877Z,-4.13
2023-01-19T06:59:38.121Z,-4.14
2023-01-19T07:02:27.200Z,-4.18
2023-01-19T07:04:50.699Z,-4.09
2023-01-19T07:07:16.981Z,-4.05
2023-01-19T07:09:43.221Z,-4.06
2023-01-19T07:12:09.484Z,-4.06
2023-01-19T07:14:36.578Z,-4.01
2023-01-19T07:17:02.854Z,-4.00
2023-01-19T07:19:29.100Z,-3.96
2023-01-19T07:21:55.372Z,-3.91
2023-01-19T07:24:21.639Z,-3.93
2023-01-19T07:26:47.904Z,-3.89
2023-01-19T07:29:14.154Z,-3.91
2023-01-19T07:31:40.483Z,-4.00
2023-01-19T07:34:06.807Z,-4.13
2023-01-19T07:36:33.123Z,-4.10
2023-01-19T07:38:59.427Z,-4.04
2023-01-19T07:41:25.711Z,-4.02
2023-01-19T07:43:51.976Z,-4.02
2023-01-19T07:46:18.276Z,-3.99
2023-01-19T07:48:44.569Z,-3.98
2023-01-19T07:51:12.705Z,-3.97
2023-01-19T07:53:39.345Z,-4.04
2023-01-19T07:56:05.608Z,-3.98
2023-01-19T07:58:31.869Z,-3.96
2023-01-19T08:00:58.285Z,-3.93
2023-01-19T08:03:24.771Z,-3.90
2023-01-19T08:05:51.048Z,-3.88
2023-01-19T08:08:17.382Z,-3.86
2023-01-19T08:10:43.633Z,-3.80
2023-01-19T08:13:09.871Z,-3.74
2023-01-19T08:15:36.159Z,-3.66
2023-01-19T08:18:02.454Z,-3.63
2023-01-19T08:20:28.731Z,-3.62
2023-01-19T08:22:54.979Z,-3.63
2023-01-19T08:25:21.221Z,-3.70
2023-01-19T08:27:47.511Z,-3.69
2023-01-19T08:30:13.762Z,-3.68
2023-01-19T08:32:40.049Z,-3.66
2023-01-19T08:35:06.334Z,-3.64
2023-01-19T08:37:34.224Z,-3.62
2023-01-19T08:40:00.660Z,-3.57
2023-01-19T08:42:26.922Z,-3.51
2023-01-19T08:44:58.197Z,-3.49
2023-01-19T08:47:24.872Z,-3.47
2023-01-19T08:49:51.202Z,-3.44
2023-01-19T08:52:17.480Z,-3.39
2023-01-19T08:54:43.743Z,-3.41
2023-01-19T08:57:10.017Z,-3.42
2023-01-19T08:59:36.337Z,-3.37
2023-01-19T09:02:02.711Z,-3.27
2023-01-19T09:04:29.086Z,-3.20
2023-01-19T09:06:55.336Z,-3.14
2023-01-19T09:09:21.622Z,-3.06
2023-01-19T09:11:47.933Z,-3.06
2023-01-19T09:14:14.206Z,-3.02
2023-01-19T09:16:40.493Z,-2.96
2023-01-19T09:19:06.799Z,-2.85
2023-01-19T09:21:33.080Z,-2.82
2023-01-19T09:23:59.344Z,-2.77
2023-01-19T09:26:25.608Z,-2.72
2023-01-19T09:28:51.881Z,-2.65
2023-01-19T09:31:18.249Z,-2.59
2023-01-19T09:33:44.541Z,-2.55
2023-01-19T09:36:10.825Z,-2.48
2023-01-19T09:38:37.074Z,-2.43
2023-01-19T09:41:03.441Z,-2.32
2023-01-19T09:43:29.740Z,-2.26
2023-01-19T09:45:56.012Z,-2.21
2023-01-19T09:48:22.248Z,-2.15
2023-01-19T09:50:48.503Z,-2.07
2023-01-19T09:53:14.770Z,-2.03
2023-01-19T09:55:41.069Z,-1.97
2023-01-19T09:58:07.360Z,-1.91
2023-01-19T10:00:33.669Z,-1.84
2023-01-19T10:03:00.314Z,-1.79
2023-01-19T10:05:26.841Z,-1.74
2023-01-19T10:07:53.158Z,-1.73
2023-01-19T10:10:19.421Z,-1.70
2023-01-19T10:12:45.680Z,-1.66
2023-01-19T10:15:11.960Z,-1.61
2023-01-19T10:17:38.211Z,-1.55
2023-01-19T10:20:04.480Z,-1.50
2023-01-19T10:22:30.787Z,-1.42
2023-01-19T10:24:57.074Z,-1.34
2023-01-19T10:27:23.327Z,-1.29
2023-01-19T10:29:49.574Z,-1.26
2023-01-19T10:32:15.875Z,-1.17
2023-01-19T10:34:45.254Z,-1.10
2023-01-19T10:37:11.526Z,-1.06
2023-01-19T10:39:38.836Z,-1.09
2023-01-19T10:42:05.205Z,-1.07
2023-01-19T10:44:31.448Z,-0.99
2023-01-19T10:46:57.750Z,-0.95
2023-01-19T10:49:24.067Z,-0.84
2023-01-19T10:51:50.391Z,-0.82
2023-01-19T10:54:16.666Z,-0.75
2023-01-19T10:56:42.979Z,-0.73
2023-01-19T10:59:09.284Z,-0.67
2023-01-19T11:01:35.655Z,-0.65
2023-01-19T11:04:01.971Z,-0.63
2023-01-19T11:06:28.334Z,-0.65
2023-01-19T11:08:54.599Z,-0.61
2023-01-19T11:11:20.883Z,-0.55
2023-01-19T11:13:47.151Z,-0.47
2023-01-19T11:16:13.548Z,-0.43
2023-01-19T11:18:39.830Z,-0.30
2023-01-19T11:21:06.093Z,-0.22
2023-01-19T11:23:32.375Z,-0.15
2023-01-19T11:25:58.629Z,-0.06
2023-01-19T11:28:24.919Z,-0.09
2023-01-19T11:30:51.263Z,-0.00
2023-01-19T11:33:17.535Z,0.03
2023-01-19T11:35:43.791Z,0.05
2023-01-19T11:38:10.066Z,0.09
2023-01-19T11:40:36.333Z,0.07
2023-01-19T11:43:02.966Z,0.10
2023-01-19T11:45:29.517Z,0.09
2023-01-19T11:47:55.803Z,0.13
2023-01-19T11:50:22.080Z,-0.01
2023-01-19T11:52:48.392Z,-0.09
2023-01-19T11:55:14.643Z,-0.06
2023-01-19T11:57:40.919Z,-0.02
2023-01-19T12:00:07.169Z,-0.04
2023-01-19T12:02:33.451Z,-0.06
2023-01-19T12:04:59.719Z,-0.03
2023-01-19T12:07:25.976Z,-0.02
2023-01-19T12:09:52.241Z,-0.04
2023-01-19T12:12:18.516Z,-0.03
2023-01-19T12:14:44.774Z,-0.06
2023-01-19T12:17:11.020Z,-0.05
2023-01-19T12:19:37.272Z,-0.07
2023-01-19T12:22:03.560Z,-0.00
2023-01-19T12:24:29.845Z,0.04
2023-01-19T12:26:56.154Z,0.02
2023-01-19T12:29:22.423Z,0.12
2023-01-19T12:31:50.937Z,0.25
2023-01-19T12:34:18.050Z,0.36
2023-01-19T12:36:44.332Z,0.49
2023-01-19T12:39:10.626Z,0.63
2023-01-19T12:41:36.904Z,0.79
2023-01-19T12:44:03.246Z,0.79
2023-01-19T12:46:29.565Z,0.81
2023-01-19T12:48:55.891Z,0.84
2023-01-19T12:51:22.198Z,0.89
2023-01-19T12:53:50.551Z,0.96
2023-01-19T12:56:16.827Z,1.10
2023-01-19T12:58:43.174Z,1.21
2023-01-19T13:01:09.575Z,1.30
2023-01-19T13:03:35.899Z,1.40
2023-01-19T13:06:02.204Z,1.54
2023-01-19T13:08:28.477Z,1.72
2023-01-19T13:10:54.782Z,1.82
2023-01-19T13:13:21.045Z,1.93
2023-01-19T13:15:47.343Z,1.94
2023-01-19T13:18:13.701Z,2.00
2023-01-19T13:20:39.956Z,2.09
2023-01-19T13:23:06.226Z,2.17
2023-01-19T13:25:32.481Z,2.24
2023-01-19T13:27:58.756Z,2.29
2023-01-19T13:30:25.118Z,2.26
2023-01-19T13:32:51.409Z,2.38
2023-01-19T13:35:17.737Z,2.43
2023-01-19T13:37:43.999Z,2.51
2023-01-19T13:40:10.292Z,2.55
2023-01-19T13:42:36.540Z,2.51
2023-01-19T13:45:02.819Z,2.43
2023-01-19T13:47:29.112Z,2.45
2023-01-19T13:49:55.381Z,2.43
2023-01-19T13:52:21.660Z,2.48
2023-01-19T13:54:47.930Z,2.48
2023-01-19T13:57:14.210Z,2.49
2023-01-19T13:59:40.552Z,2.64
2023-01-19T14:02:06.909Z,2.74
2023-01-19T14:04:33.233Z,2.91
2023-01-19T14:06:59.484Z,2.95
2023-01-19T14:09:25.748Z,2.95
2023-01-19T14:11:52.075Z,2.99
2023-01-19T14:14:18.370Z,3.06
2023-01-19T14:16:44.608Z,3.07
2023-01-19T14:19:10.880Z,3.12
2023-01-19T14:21:37.194Z,3.15
2023-01-19T14:24:03.481Z,3.14
2023-01-19T14:26:29.751Z,3.18
2023-01-19T14:28:56.016Z,3.24
2023-01-19T14:31:22.347Z,3.18
2023-01-19T14:33:48.755Z,3.24
2023-01-19T14:36:17.583Z,3.33
2023-01-19T14:38:44.095Z,3.33
2023-01-19T14:41:10.450Z,3.38
2023-01-19T14:43:36.693Z,3.40
2023-01-19T14:46:02.944Z,3.39
2023-01-19T14:48:29.212Z,3.38
2023-01-19T14:51:03.147Z,3.40
2023-01-19T14:53:29.656Z,3.34
2023-01-19T14:55:55.959Z,3.27
2023-01-19T14:58:22.219Z,3.22
2023-01-19T15:00:48.525Z,3.20
2023-01-19T15:03:14.791Z,3.23
2023-01-19T15:05:41.054Z,3.22
2023-01-19T15:08:07.341Z,3.11
2023-01-19T15:10:33.605Z,3.00
2023-01-19T15:12:59.910Z,2.95
2023-01-19T15:15:26.175Z,2.87
2023-01-19T15:17:53.171Z,2.84
2023-01-19T15:20:20.511Z,2.79
2023-01-19T15:22:46.815Z,2.76
2023-01-19T15:25:13.072Z,2.67
2023-01-19T15:27:39.349Z,2.50
2023-01-19T15:30:05.625Z,2.35
2023-01-19T15:32:31.910Z,2.23
2023-01-19T15:34:58.229Z,2.23
2023-01-19T15:37:24.590Z,1.89
2023-01-19T15:39:50.929Z,1.73
2023-01-19T15:42:17.290Z,1.60
2023-01-19T15:44:43.651Z,1.66
2023-01-19T15:47:10.018Z,1.64
2023-01-19T15:49:36.309Z,1.55
2023-01-19T15:52:02.594Z,1.48
2023-01-19T15:54:28.860Z,1.42
2023-01-19T15:56:55.115Z,1.30
2023-01-19T15:59:21.389Z,1.17
2023-01-19T16:01:47.845Z,1.10
2023-01-19T16:04:15.998Z,0.93
2023-01-19T16:06:44.083Z,0.96
2023-01-19T16:09:10.352Z,0.93
2023-01-19T16:11:36.605Z,0.89
2023-01-19T16:14:02.861Z,0.86
2023-01-19T16:16:29.198Z,0.77
2023-01-19T16:18:55.523Z,0.72
2023-01-19T16:21:21.821Z,0.68
2023-01-19T16:23:48.091Z,0.65
2023-01-19T16:26:16.187Z,0.60
2023-01-19T16:28:43.747Z,0.60
2023-01-19T16:31:10.031Z,0.63
2023-01-19T16:33:36.340Z,0.59
2023-01-19T16:36:02.598Z,0.63
2023-01-19T16:38:28.901Z,0.59
2023-01-19T16:40:55.175Z,0.58
2023-01-19T16:43:21.442Z,0.53
2023-01-19T16:45:47.749Z,0.50
2023-01-19T16:48:14.025Z,0.47
2023-01-19T16:50:40.315Z,0.46
2023-01-19T16:53:06.571Z,0.42
2023-01-19T16:55:32.838Z,0.42
2023-01-19T16:57:59.106Z,0.39
2023-01-19T17:00:25.388Z,0.38
2023-01-19T17:02:51.714Z,0.37
2023-01-19T17:05:18.023Z,0.37
2023-01-19T17:07:44.327Z,0.34
2023-01-19T17:10:10.833Z,0.26
2023-01-19T17:12:37.228Z,0.20
2023-01-19T17:15:03.488Z,0.16
2023-01-19T17:17:29.735Z,0.14
2023-01-19T17:19:56.017Z,0.13
2023-01-19T17:22:22.329Z,0.10
2023-01-19T17:24:48.601Z,0.08
2023-01-19T17:27:14.913Z,0.09
2023-01-19T17:29:41.218Z,0.05
2023-01-19T17:32:07.498Z,0.04
2023-01-19T17:34:33.804Z,0.02
2023-01-19T17:37:00.103Z,-0.01
2023-01-19T17:39:26.397Z,-0.03
2023-01-19T17:41:52.694Z,-0.08
2023-01-19T17:44:18.991Z,-0.12
2023-01-19T17:46:45.247Z,-0.16
2023-01-19T17:49:11.599Z,-0.15
2023-01-19T17:51:37.868Z,-0.18
2023-01-19T17:54:04.178Z,-0.20
2023-01-19T17:56:30.513Z,-0.27
2023-01-19T17:58:56.803Z,-0.35
2023-01-19T18:01:23.189Z,-0.46
2023-01-19T18:03:49.531Z,-0.59
2023-01-19T18:06:15.979Z,-0.64
2023-01-19T18:08:42.287Z,-0.76
2023-01-19T18:11:08.609Z,-0.84
2023-01-19T18:13:34.891Z,-0.91
2023-01-19T18:16:01.350Z,-1.05
2023-01-19T18:18:27.645Z,-1.05
2023-01-19T18:20:53.924Z,-1.08
2023-01-19T18:23:20.276Z,-1.19
2023-01-19T18:25:46.585Z,-1.28
2023-01-19T18:28:13.025Z,-1.37
2023-01-19T18:30:39.426Z,-1.42
2023-01-19T18:33:05.790Z,-1.41
2023-01-19T18:35:32.063Z,-1.55
2023-01-19T18:37:58.347Z,-1.60
2023-01-19T18:40:24.605Z,-1.71
2023-01-19T18:42:50.963Z,-1.67
2023-01-19T18:45:17.337Z,-1.78
2023-01-19T18:47:43.624Z,-1.84
2023-01-19T18:50:09.882Z,-1.82
2023-01-19T18:52:36.163Z,-1.73
2023-01-19T18:55:02.461Z,-1.66
2023-01-19T18:57:28.810Z,-1.72
2023-01-19T18:59:55.142Z,-1.76
2023-01-19T19:02:21.490Z,-1.78
2023-01-19T19:04:47.789Z,-1.83
2023-01-19T19:07:14.052Z,-1.92
2023-01-19T19:09:40.407Z,-1.93
2023-01-19T19:12:06.695Z,-2.08
2023-01-19T19:14:32.983Z,-2.20
2023-01-19T19:16:59.242Z,-2.23
2023-01-19T19:19:25.532Z,-2.36
2023-01-19T19:21:51.811Z,-2.35
2023-01-19T19:24:18.105Z,-2.39
2023-01-19T19:26:44.391Z,-2.46
2023-01-19T19:29:10.659Z,-2.47
2023-01-19T19:31:36.994Z,-2.53
2023-01-19T19:34:03.475Z,-2.57
2023-01-19T19:36:29.800Z,-2.53
2023-01-19T19:38:56.085Z,-2.46
2023-01-19T19:41:22.369Z,-2.42
2023-01-19T19:43:48.679Z,-2.51
2023-01-19T19:46:14.954Z,-2.56
2023-01-19T19:48:41.247Z,-2.66
2023-01-19T19:51:17.736Z,-2.63
2023-01-19T19:53:45.008Z,-2.74
2023-01-19T19:56:11.290Z,-2.65
2023-01-19T19:58:37.581Z,-2.60
2023-01-19T20:01:04.030Z,-2.55
2023-01-19T20:03:30.318Z,-2.54
2023-01-19T20:05:56.634Z,-2.52
2023-01-19T20:08:22.950Z,-2.49
2023-01-19T20:10:49.232Z,-2.48
2023-01-19T20:13:15.652Z,-2.49
2023-01-19T20:15:42.101Z,-2.46
2023-01-19T20:18:08.436Z,-2.48
2023-01-19T20:20:34.757Z,-2.46
2023-01-19T20:23:01.032Z,-2.48
2023-01-19T20:25:27.311Z,-2.46
2023-01-19T20:27:53.601Z,-2.47
2023-01-19T20:30:19.893Z,-2.57
2023-01-19T20:32:46.299Z,-2.64
2023-01-19T20:35:12.991Z,-2.73
2023-01-19T20:37:39.536Z,-2.78
2023-01-19T20:40:05.826Z,-2.75
2023-01-19T20:42:32.084Z,-2.78
2023-01-19T20:45:13.858Z,-2.80
2023-01-19T20:47:40.332Z,-2.90
2023-01-19T20:50:06.702Z,-2.87
2023-01-19T20:52:33.135Z,-2.84
2023-01-19T20:54:59.414Z,-2.82
2023-01-19T20:57:25.768Z,-2.81
2023-01-19T20:59:52.064Z,-2.82
2023-01-19T21:02:18.578Z,-2.88
2023-01-19T21:04:44.928Z,-2.92
2023-01-19T21:07:11.259Z,-2.90
2023-01-19T21:09:37.509Z,-2.88
2023-01-19T21:12:03.805Z,-2.94
2023-01-19T21:14:30.081Z,-2.93
2023-01-19T21:16:56.363Z,-2.97
2023-01-19T21:19:25.709Z,-3.05
2023-01-19T21:21:51.992Z,-3.02
2023-01-19T21:24:18.271Z,-3.02
2023-01-19T21:26:44.560Z,-3.06
2023-01-19T21:29:10.834Z,-3.06
2023-01-19T21:31:37.234Z,-3.10
2023-01-19T21:34:03.621Z,-3.06
2023-01-19T21:36:29.878Z,-3.06
2023-01-19T21:38:56.132Z,-3.07
2023-01-19T21:41:22.402Z,-3.16
2023-01-19T21:43:48.661Z,-3.22
2023-01-19T21:46:14.920Z,-3.19
2023-01-19T21:48:41.173Z,-3.24
2023-01-19T21:51:07.447Z,-3.35
2023-01-19T21:53:33.713Z,-3.42
2023-01-19T21:56:00.010Z,-3.38
2023-01-19T21:58:26.275Z,-3.29
2023-01-19T22:00:52.660Z,-3.30
2023-01-19T22:03:19.020Z,-3.27
2023-01-19T22:05:45.324Z,-3.25
2023-01-19T22:08:11.588Z,-3.29
2023-01-19T22:10:37.864Z,-3.33
2023-01-19T22:13:04.137Z,-3.30
2023-01-19T22:15:30.405Z,-3.32
2023-01-19T22:17:56.678Z,-3.33
2023-01-19T22:20:22.945Z,-3.34
2023-01-19T22:22:49.328Z,-3.35
2023-01-19T22:25:15.749Z,-3.33
2023-01-19T22:27:42.062Z,-3.31
2023-01-19T22:30:08.384Z,-3.35
2023-01-19T22:32:34.687Z,-3.37
2023-01-19T22:35:00.960Z,-3.39
2023-01-19T22:37:27.243Z,-3.47
2023-01-19T22:39:53.587Z,-3.45
2023-01-19T22:42:19.880Z,-3.49
2023-01-19T22:44:46.139Z,-3.40
2023-01-19T22:47:12.427Z,-3.47
2023-01-19T22:49:38.755Z,-3.42
2023-01-19T22:52:05.061Z,-3.44
2023-01-19T22:54:31.372Z,-3.46
2023-01-19T22:56:57.695Z,-3.43
2023-01-19T22:59:23.970Z,-3.41
2023-01-19T23:01:50.363Z,-3.49
2023-01-19T23:04:16.697Z,-3.51
2023-01-19T23:06:42.992Z,-3.39
2023-01-19T23:09:09.344Z,-3.41
2023-01-19T23:11:36.184Z,-3.47
2023-01-19T23:14:02.491Z,-3.41
2023-01-19T23:16:28.760Z,-3.37
2023-01-19T23:18:55.041Z,-3.30
2023-01-19T23:21:21.332Z,-3.21
2023-01-19T23:23:47.595Z,-3.14
2023-01-19T23:26:13.940Z,-3.25
2023-01-19T23:28:40.311Z,-3.22
2023-01-19T23:31:06.632Z,-3.19
2023-01-19T23:33:32.941Z,-3.15
2023-01-19T23:35:59.198Z,-3.13
2023-01-19T23:38:25.468Z,-3.23
2023-01-19T23:40:51.742Z,-3.24
2023-01-19T23:43:18.010Z,-3.21
2023-01-19T23:45:44.365Z,-3.19
2023-01-19T23:48:10.638Z,-3.18
2023-01-19T23:50:36.903Z,-3.20
2023-01-19T23:53:03.269Z,-3.18
2023-01-19T23:55:29.568Z,-3.16
2023-01-19T23:57:55.841Z,-3.10
